sensor_id;sensor_type;location;lat;lon;timestamp;P1;durP1;ratioP1;P2;durP2;ratioP2
14001;SDS011;7076;51.280;12.584;2022-09-28T00:03:12;0.65;;;0.55;;
14001;SDS011;7076;51.280;12.584;2022-09-28T00:08:16;0.40;;;0.40;;
14001;SDS011;7076;51.280;12.584;2022-09-28T00:13:18;1.25;;;0.47;;
14001;SDS011;7076;51.280;12.584;2022-09-28T00:18:21;0.45;;;0.45;;
14001;SDS011;7076;51.280;12.584;2022-09-28T00:23:25;0.30;;;0.30;;
14001;SDS011;7076;51.280;12.584;2022-09-28T00:28:28;0.30;;;0.30;;
14001;SDS011;7076;51.280;12.584;2022-09-28T00:33:31;0.43;;;0.43;;
14001;SDS011;7076;51.280;12.584;2022-09-28T00:38:35;0.47;;;0.30;;
14001;SDS011;7076;51.280;12.584;2022-09-28T00:43:40;0.43;;;0.40;;
14001;SDS011;7076;51.280;12.584;2022-09-28T00:48:45;0.95;;;0.40;;
14001;SDS011;7076;51.280;12.584;2022-09-28T00:53:53;0.45;;;0.40;;
14001;SDS011;7076;51.280;12.584;2022-09-28T00:58:57;0.50;;;0.50;;
14001;SDS011;7076;51.280;12.584;2022-09-28T01:04:04;0.30;;;0.30;;
14001;SDS011;7076;51.280;12.584;2022-09-28T01:09:08;2.80;;;0.40;;
14001;SDS011;7076;51.280;12.584;2022-09-28T01:14:12;1.00;;;0.57;;
14001;SDS011;7076;51.280;12.584;2022-09-28T01:19:22;0.40;;;0.40;;
14001;SDS011;7076;51.280;12.584;2022-09-28T01:24:39;0.70;;;0.40;;
14001;SDS011;7076;51.280;12.584;2022-09-28T01:29:46;2.58;;;0.40;;
14001;SDS011;7076;51.280;12.584;2022-09-28T01:34:59;0.60;;;0.47;;
14001;SDS011;7076;51.280;12.584;2022-09-28T01:40:05;0.30;;;0.30;;
14001;SDS011;7076;51.280;12.584;2022-09-28T01:45:11;0.30;;;0.30;;
14001;SDS011;7076;51.280;12.584;2022-09-28T01:50:16;0.70;;;0.43;;
14001;SDS011;7076;51.280;12.584;2022-09-28T01:55:24;1.50;;;0.45;;
14001;SDS011;7076;51.280;12.584;2022-09-28T02:00:31;0.50;;;0.50;;
14001;SDS011;7076;51.280;12.584;2022-09-28T02:05:36;1.05;;;0.40;;
14001;SDS011;7076;51.280;12.584;2022-09-28T02:10:41;0.40;;;0.40;;
14001;SDS011;7076;51.280;12.584;2022-09-28T02:15:49;0.50;;;0.40;;
14001;SDS011;7076;51.280;12.584;2022-09-28T02:20:55;0.80;;;0.47;;
14001;SDS011;7076;51.280;12.584;2022-09-28T02:26:05;0.40;;;0.40;;
14001;SDS011;7076;51.280;12.584;2022-09-28T02:31:11;0.55;;;0.50;;
14001;SDS011;7076;51.280;12.584;2022-09-28T02:36:13;0.90;;;0.40;;
14001;SDS011;7076;51.280;12.584;2022-09-28T02:41:20;0.93;;;0.55;;
14001;SDS011;7076;51.280;12.584;2022-09-28T02:46:31;0.40;;;0.40;;
14001;SDS011;7076;51.280;12.584;2022-09-28T02:51:46;0.60;;;0.47;;
14001;SDS011;7076;51.280;12.584;2022-09-28T02:57:00;1.17;;;0.70;;
14001;SDS011;7076;51.280;12.584;2022-09-28T03:02:15;0.73;;;0.40;;
14001;SDS011;7076;51.280;12.584;2022-09-28T03:07:22;1.75;;;0.50;;
14001;SDS011;7076;51.280;12.584;2022-09-28T03:12:26;0.80;;;0.55;;
14001;SDS011;7076;51.280;12.584;2022-09-28T03:17:31;0.55;;;0.47;;
14001;SDS011;7076;51.280;12.584;2022-09-28T03:22:34;0.73;;;0.70;;
14001;SDS011;7076;51.280;12.584;2022-09-28T03:27:38;3.10;;;0.57;;
14001;SDS011;7076;51.280;12.584;2022-09-28T03:32:43;0.60;;;0.60;;
14001;SDS011;7076;51.280;12.584;2022-09-28T03:37:52;1.00;;;0.50;;
14001;SDS011;7076;51.280;12.584;2022-09-28T03:42:58;1.77;;;1.10;;
14001;SDS011;7076;51.280;12.584;2022-09-28T03:48:02;1.23;;;0.43;;
14001;SDS011;7076;51.280;12.584;2022-09-28T03:53:07;0.55;;;0.55;;
14001;SDS011;7076;51.280;12.584;2022-09-28T03:58:10;0.57;;;0.57;;
14001;SDS011;7076;51.280;12.584;2022-09-28T04:03:14;0.60;;;0.60;;
14001;SDS011;7076;51.280;12.584;2022-09-28T04:08:17;7.07;;;3.78;;
14001;SDS011;7076;51.280;12.584;2022-09-28T04:13:20;0.93;;;0.88;;
14001;SDS011;7076;51.280;12.584;2022-09-28T04:18:24;0.70;;;0.70;;
14001;SDS011;7076;51.280;12.584;2022-09-28T04:23:50;1.48;;;0.70;;
14001;SDS011;7076;51.280;12.584;2022-09-28T04:28:54;0.82;;;0.57;;
14001;SDS011;7076;51.280;12.584;2022-09-28T04:34:18;1.02;;;0.63;;
14001;SDS011;7076;51.280;12.584;2022-09-28T04:39:22;1.35;;;0.82;;
14001;SDS011;7076;51.280;12.584;2022-09-28T04:44:27;1.95;;;1.25;;
14001;SDS011;7076;51.280;12.584;2022-09-28T04:49:36;0.98;;;0.88;;
14001;SDS011;7076;51.280;12.584;2022-09-28T04:54:44;1.33;;;1.15;;
14001;SDS011;7076;51.280;12.584;2022-09-28T04:59:46;1.58;;;1.25;;
14001;SDS011;7076;51.280;12.584;2022-09-28T05:04:51;1.50;;;1.15;;
14001;SDS011;7076;51.280;12.584;2022-09-28T05:10:14;2.50;;;2.30;;
14001;SDS011;7076;51.280;12.584;2022-09-28T05:15:20;1.70;;;1.60;;
14001;SDS011;7076;51.280;12.584;2022-09-28T05:20:24;3.15;;;1.65;;
14001;SDS011;7076;51.280;12.584;2022-09-28T05:25:27;1.58;;;1.15;;
14001;SDS011;7076;51.280;12.584;2022-09-28T05:30:39;1.35;;;1.25;;
14001;SDS011;7076;51.280;12.584;2022-09-28T05:36:06;2.95;;;2.03;;
14001;SDS011;7076;51.280;12.584;2022-09-28T05:41:10;1.60;;;1.50;;
14001;SDS011;7076;51.280;12.584;2022-09-28T05:46:13;1.63;;;1.00;;
14001;SDS011;7076;51.280;12.584;2022-09-28T05:51:17;1.83;;;1.25;;
14001;SDS011;7076;51.280;12.584;2022-09-28T05:56:20;1.85;;;1.60;;
14001;SDS011;7076;51.280;12.584;2022-09-28T06:01:25;2.55;;;2.00;;
14001;SDS011;7076;51.280;12.584;2022-09-28T06:06:33;1.58;;;1.48;;
14001;SDS011;7076;51.280;12.584;2022-09-28T06:11:36;1.63;;;1.40;;
14001;SDS011;7076;51.280;12.584;2022-09-28T06:16:45;1.30;;;1.13;;
14001;SDS011;7076;51.280;12.584;2022-09-28T06:21:49;1.85;;;1.50;;
14001;SDS011;7076;51.280;12.584;2022-09-28T06:26:52;1.50;;;1.40;;
14001;SDS011;7076;51.280;12.584;2022-09-28T06:31:55;3.13;;;1.48;;
14001;SDS011;7076;51.280;12.584;2022-09-28T06:37:00;1.70;;;1.10;;
14001;SDS011;7076;51.280;12.584;2022-09-28T06:42:05;2.03;;;1.35;;
14001;SDS011;7076;51.280;12.584;2022-09-28T06:47:26;2.67;;;1.45;;
14001;SDS011;7076;51.280;12.584;2022-09-28T06:52:52;1.35;;;1.25;;
14001;SDS011;7076;51.280;12.584;2022-09-28T06:58:13;1.30;;;1.20;;
14001;SDS011;7076;51.280;12.584;2022-09-28T07:03:18;1.17;;;1.02;;
14001;SDS011;7076;51.280;12.584;2022-09-28T07:08:46;1.00;;;0.95;;
14001;SDS011;7076;51.280;12.584;2022-09-28T07:14:22;1.35;;;1.00;;
14001;SDS011;7076;51.280;12.584;2022-09-28T07:19:45;1.85;;;1.10;;
14001;SDS011;7076;51.280;12.584;2022-09-28T07:24:54;1.40;;;1.17;;
14001;SDS011;7076;51.280;12.584;2022-09-28T07:30:16;1.13;;;1.00;;
14001;SDS011;7076;51.280;12.584;2022-09-28T07:35:48;1.30;;;1.05;;
14001;SDS011;7076;51.280;12.584;2022-09-28T07:40:54;1.38;;;0.88;;
14001;SDS011;7076;51.280;12.584;2022-09-28T07:46:20;0.90;;;0.90;;
14001;SDS011;7076;51.280;12.584;2022-09-28T07:51:29;1.75;;;1.05;;
14001;SDS011;7076;51.280;12.584;2022-09-28T07:56:52;3.45;;;1.35;;
14001;SDS011;7076;51.280;12.584;2022-09-28T08:02:03;4.43;;;1.80;;
14001;SDS011;7076;51.280;12.584;2022-09-28T08:07:07;1.52;;;1.30;;
14001;SDS011;7076;51.280;12.584;2022-09-28T08:12:12;2.00;;;1.30;;
14001;SDS011;7076;51.280;12.584;2022-09-28T08:17:19;3.15;;;1.17;;
14001;SDS011;7076;51.280;12.584;2022-09-28T08:22:25;0.85;;;0.85;;
14001;SDS011;7076;51.280;12.584;2022-09-28T08:27:34;1.40;;;1.13;;
14001;SDS011;7076;51.280;12.584;2022-09-28T08:32:38;1.40;;;1.30;;
14001;SDS011;7076;51.280;12.584;2022-09-28T08:38:12;1.88;;;1.35;;
14001;SDS011;7076;51.280;12.584;2022-09-28T08:43:37;1.02;;;0.90;;
14001;SDS011;7076;51.280;12.584;2022-09-28T08:49:24;0.60;;;0.60;;
14001;SDS011;7076;51.280;12.584;2022-09-28T08:54:54;2.92;;;0.70;;
14001;SDS011;7076;51.280;12.584;2022-09-28T09:00:13;1.13;;;1.02;;
14001;SDS011;7076;51.280;12.584;2022-09-28T09:05:19;0.40;;;0.40;;
14001;SDS011;7076;51.280;12.584;2022-09-28T09:10:42;0.40;;;0.40;;
14001;SDS011;7076;51.280;12.584;2022-09-28T09:15:53;0.38;;;0.38;;
14001;SDS011;7076;51.280;12.584;2022-09-28T09:21:20;1.15;;;0.45;;
14001;SDS011;7076;51.280;12.584;2022-09-28T09:26:33;0.40;;;0.40;;
14001;SDS011;7076;51.280;12.584;2022-09-28T09:31:45;0.35;;;0.35;;
14001;SDS011;7076;51.280;12.584;2022-09-28T09:36:57;0.30;;;0.30;;
14001;SDS011;7076;51.280;12.584;2022-09-28T09:42:22;0.60;;;0.40;;
14001;SDS011;7076;51.280;12.584;2022-09-28T09:47:52;0.25;;;0.25;;
14001;SDS011;7076;51.280;12.584;2022-09-28T09:53:01;0.75;;;0.40;;
14001;SDS011;7076;51.280;12.584;2022-09-28T09:58:07;0.50;;;0.40;;
14001;SDS011;7076;51.280;12.584;2022-09-28T10:03:22;0.63;;;0.40;;
14001;SDS011;7076;51.280;12.584;2022-09-28T10:08:29;0.50;;;0.50;;
14001;SDS011;7076;51.280;12.584;2022-09-28T10:13:36;0.68;;;0.40;;
14001;SDS011;7076;51.280;12.584;2022-09-28T10:18:52;0.45;;;0.45;;
14001;SDS011;7076;51.280;12.584;2022-09-28T10:24:15;0.30;;;0.30;;
14001;SDS011;7076;51.280;12.584;2022-09-28T10:29:20;0.30;;;0.30;;
14001;SDS011;7076;51.280;12.584;2022-09-28T10:34:25;0.20;;;0.20;;
14001;SDS011;7076;51.280;12.584;2022-09-28T10:39:31;0.38;;;0.38;;
14001;SDS011;7076;51.280;12.584;2022-09-28T10:44:42;0.38;;;0.30;;
14001;SDS011;7076;51.280;12.584;2022-09-28T10:50:00;0.60;;;0.17;;
14001;SDS011;7076;51.280;12.584;2022-09-28T11:00:31;0.22;;;0.20;;
14001;SDS011;7076;51.280;12.584;2022-09-28T11:05:59;0.45;;;0.30;;
14001;SDS011;7076;51.280;12.584;2022-09-28T11:11:04;0.30;;;0.30;;
14001;SDS011;7076;51.280;12.584;2022-09-28T11:16:17;0.77;;;0.22;;
14001;SDS011;7076;51.280;12.584;2022-09-28T11:21:26;0.52;;;0.30;;
14001;SDS011;7076;51.280;12.584;2022-09-28T11:26:37;0.20;;;0.20;;
14001;SDS011;7076;51.280;12.584;2022-09-28T11:31:46;1.65;;;0.38;;
14001;SDS011;7076;51.280;12.584;2022-09-28T11:36:58;0.68;;;0.28;;
14001;SDS011;7076;51.280;12.584;2022-09-28T11:42:15;0.30;;;0.20;;
14001;SDS011;7076;51.280;12.584;2022-09-28T11:52:53;2.17;;;1.00;;
14001;SDS011;7076;51.280;12.584;2022-09-28T11:58:00;0.32;;;0.32;;
14001;SDS011;7076;51.280;12.584;2022-09-28T12:03:05;0.55;;;0.40;;
14001;SDS011;7076;51.280;12.584;2022-09-28T12:08:14;0.40;;;0.40;;
14001;SDS011;7076;51.280;12.584;2022-09-28T12:13:34;0.40;;;0.30;;
14001;SDS011;7076;51.280;12.584;2022-09-28T12:18:40;1.25;;;0.90;;
14001;SDS011;7076;51.280;12.584;2022-09-28T12:23:47;4.57;;;2.25;;
14001;SDS011;7076;51.280;12.584;2022-09-28T12:28:51;2.00;;;0.50;;
14001;SDS011;7076;51.280;12.584;2022-09-28T12:33:57;0.77;;;0.60;;
14001;SDS011;7076;51.280;12.584;2022-09-28T12:39:09;0.40;;;0.40;;
14001;SDS011;7076;51.280;12.584;2022-09-28T12:44:46;0.85;;;0.50;;
14001;SDS011;7076;51.280;12.584;2022-09-28T12:50:03;0.40;;;0.40;;
14001;SDS011;7076;51.280;12.584;2022-09-28T12:55:43;0.47;;;0.47;;
14001;SDS011;7076;51.280;12.584;2022-09-28T13:00:53;0.60;;;0.45;;
14001;SDS011;7076;51.280;12.584;2022-09-28T13:06:11;0.40;;;0.40;;
14001;SDS011;7076;51.280;12.584;2022-09-28T13:11:21;5.15;;;0.80;;
14001;SDS011;7076;51.280;12.584;2022-09-28T13:16:33;1.33;;;0.43;;
14001;SDS011;7076;51.280;12.584;2022-09-28T13:21:39;0.52;;;0.52;;
14001;SDS011;7076;51.280;12.584;2022-09-28T13:26:46;1.08;;;0.70;;
14001;SDS011;7076;51.280;12.584;2022-09-28T13:31:50;0.82;;;0.50;;
14001;SDS011;7076;51.280;12.584;2022-09-28T13:37:07;0.95;;;0.50;;
14001;SDS011;7076;51.280;12.584;2022-09-28T13:42:22;0.47;;;0.47;;
14001;SDS011;7076;51.280;12.584;2022-09-28T13:47:35;0.40;;;0.40;;
14001;SDS011;7076;51.280;12.584;2022-09-28T13:52:44;0.40;;;0.40;;
14001;SDS011;7076;51.280;12.584;2022-09-28T13:57:52;0.60;;;0.60;;
14001;SDS011;7076;51.280;12.584;2022-09-28T14:02:58;0.85;;;0.50;;
14001;SDS011;7076;51.280;12.584;2022-09-28T14:08:17;0.63;;;0.52;;
14001;SDS011;7076;51.280;12.584;2022-09-28T14:19:02;0.50;;;0.50;;
14001;SDS011;7076;51.280;12.584;2022-09-28T14:24:09;0.70;;;0.70;;
14001;SDS011;7076;51.280;12.584;2022-09-28T14:29:24;0.57;;;0.47;;
14001;SDS011;7076;51.280;12.584;2022-09-28T14:34:32;0.95;;;0.80;;
14001;SDS011;7076;51.280;12.584;2022-09-28T14:39:36;0.50;;;0.50;;
14001;SDS011;7076;51.280;12.584;2022-09-28T14:45:17;0.57;;;0.57;;
14001;SDS011;7076;51.280;12.584;2022-09-28T14:50:25;0.68;;;0.68;;
14001;SDS011;7076;51.280;12.584;2022-09-28T14:55:30;0.55;;;0.55;;
14001;SDS011;7076;51.280;12.584;2022-09-28T15:00:36;0.80;;;0.80;;
14001;SDS011;7076;51.280;12.584;2022-09-28T15:05:41;1.15;;;1.05;;
14001;SDS011;7076;51.280;12.584;2022-09-28T15:10:48;1.20;;;1.10;;
14001;SDS011;7076;51.280;12.584;2022-09-28T15:15:54;1.90;;;1.27;;
14001;SDS011;7076;51.280;12.584;2022-09-28T15:21:01;2.13;;;1.10;;
14001;SDS011;7076;51.280;12.584;2022-09-28T15:26:05;0.90;;;0.80;;
14001;SDS011;7076;51.280;12.584;2022-09-28T15:31:15;1.58;;;0.98;;
14001;SDS011;7076;51.280;12.584;2022-09-28T15:36:20;1.20;;;1.10;;
14001;SDS011;7076;51.280;12.584;2022-09-28T15:41:26;2.95;;;2.20;;
14001;SDS011;7076;51.280;12.584;2022-09-28T15:46:31;1.20;;;0.90;;
14001;SDS011;7076;51.280;12.584;2022-09-28T15:51:44;2.25;;;1.10;;
14001;SDS011;7076;51.280;12.584;2022-09-28T15:56:49;1.63;;;1.20;;
14001;SDS011;7076;51.280;12.584;2022-09-28T16:02:02;1.17;;;1.02;;
14001;SDS011;7076;51.280;12.584;2022-09-28T16:07:19;1.63;;;0.90;;
14001;SDS011;7076;51.280;12.584;2022-09-28T16:12:25;2.05;;;1.00;;
14001;SDS011;7076;51.280;12.584;2022-09-28T16:17:33;1.60;;;1.40;;
14001;SDS011;7076;51.280;12.584;2022-09-28T16:22:36;3.92;;;1.40;;
14001;SDS011;7076;51.280;12.584;2022-09-28T16:27:40;1.23;;;0.88;;
14001;SDS011;7076;51.280;12.584;2022-09-28T16:32:49;1.00;;;1.00;;
14001;SDS011;7076;51.280;12.584;2022-09-28T16:37:55;1.50;;;1.00;;
14001;SDS011;7076;51.280;12.584;2022-09-28T16:43:14;1.23;;;1.13;;
14001;SDS011;7076;51.280;12.584;2022-09-28T16:48:21;1.52;;;1.08;;
14001;SDS011;7076;51.280;12.584;2022-09-28T16:53:25;1.10;;;1.00;;
14001;SDS011;7076;51.280;12.584;2022-09-28T16:58:46;1.10;;;0.98;;
14001;SDS011;7076;51.280;12.584;2022-09-28T17:03:51;1.23;;;1.13;;
14001;SDS011;7076;51.280;12.584;2022-09-28T17:08:54;4.93;;;1.48;;
14001;SDS011;7076;51.280;12.584;2022-09-28T17:13:59;1.20;;;1.10;;
14001;SDS011;7076;51.280;12.584;2022-09-28T17:19:07;2.58;;;1.95;;
14001;SDS011;7076;51.280;12.584;2022-09-28T17:24:18;17.23;;;10.45;;
14001;SDS011;7076;51.280;12.584;2022-09-28T17:29:21;15.02;;;7.85;;
14001;SDS011;7076;51.280;12.584;2022-09-28T17:34:25;10.00;;;7.15;;
14001;SDS011;7076;51.280;12.584;2022-09-28T17:39:28;7.15;;;5.70;;
14001;SDS011;7076;51.280;12.584;2022-09-28T17:44:31;6.47;;;4.63;;
14001;SDS011;7076;51.280;12.584;2022-09-28T17:49:35;4.00;;;3.60;;
14001;SDS011;7076;51.280;12.584;2022-09-28T17:54:39;4.75;;;3.28;;
14001;SDS011;7076;51.280;12.584;2022-09-28T17:59:41;3.65;;;3.35;;
14001;SDS011;7076;51.280;12.584;2022-09-28T18:04:45;4.90;;;4.00;;
14001;SDS011;7076;51.280;12.584;2022-09-28T18:09:52;3.90;;;3.20;;
14001;SDS011;7076;51.280;12.584;2022-09-28T18:14:56;6.10;;;4.65;;
14001;SDS011;7076;51.280;12.584;2022-09-28T18:20:01;7.65;;;5.07;;
14001;SDS011;7076;51.280;12.584;2022-09-28T18:25:04;4.75;;;4.25;;
14001;SDS011;7076;51.280;12.584;2022-09-28T18:30:08;8.50;;;3.53;;
14001;SDS011;7076;51.280;12.584;2022-09-28T18:35:12;3.55;;;2.90;;
14001;SDS011;7076;51.280;12.584;2022-09-28T18:40:18;3.17;;;2.88;;
14001;SDS011;7076;51.280;12.584;2022-09-28T18:45:21;3.22;;;2.88;;
14001;SDS011;7076;51.280;12.584;2022-09-28T18:50:26;2.88;;;2.53;;
14001;SDS011;7076;51.280;12.584;2022-09-28T18:55:28;2.80;;;2.28;;
14001;SDS011;7076;51.280;12.584;2022-09-28T19:00:31;3.33;;;2.85;;
14001;SDS011;7076;51.280;12.584;2022-09-28T19:05:37;2.83;;;2.40;;
14001;SDS011;7076;51.280;12.584;2022-09-28T19:10:42;3.47;;;3.17;;
14001;SDS011;7076;51.280;12.584;2022-09-28T19:15:48;2.13;;;1.95;;
14001;SDS011;7076;51.280;12.584;2022-09-28T19:20:52;3.15;;;2.08;;
14001;SDS011;7076;51.280;12.584;2022-09-28T19:25:55;3.88;;;2.55;;
14001;SDS011;7076;51.280;12.584;2022-09-28T19:30:58;2.90;;;2.30;;
14001;SDS011;7076;51.280;12.584;2022-09-28T19:36:09;6.55;;;3.38;;
14001;SDS011;7076;51.280;12.584;2022-09-28T19:41:13;5.32;;;4.32;;
14001;SDS011;7076;51.280;12.584;2022-09-28T19:46:43;4.05;;;3.00;;
14001;SDS011;7076;51.280;12.584;2022-09-28T19:51:47;3.33;;;2.42;;
14001;SDS011;7076;51.280;12.584;2022-09-28T19:57:11;2.75;;;2.38;;
14001;SDS011;7076;51.280;12.584;2022-09-28T20:02:16;2.88;;;1.90;;
14001;SDS011;7076;51.280;12.584;2022-09-28T20:07:20;1.60;;;1.50;;
14001;SDS011;7076;51.280;12.584;2022-09-28T20:12:23;1.95;;;1.40;;
14001;SDS011;7076;51.280;12.584;2022-09-28T20:17:25;2.38;;;1.48;;
14001;SDS011;7076;51.280;12.584;2022-09-28T20:22:29;3.15;;;1.77;;
14001;SDS011;7076;51.280;12.584;2022-09-28T20:27:32;1.95;;;1.45;;
14001;SDS011;7076;51.280;12.584;2022-09-28T20:32:35;1.77;;;1.60;;
14001;SDS011;7076;51.280;12.584;2022-09-28T20:37:39;2.35;;;2.08;;
14001;SDS011;7076;51.280;12.584;2022-09-28T20:42:43;2.00;;;1.33;;
14001;SDS011;7076;51.280;12.584;2022-09-28T20:47:46;2.03;;;1.15;;
14001;SDS011;7076;51.280;12.584;2022-09-28T20:52:50;4.65;;;3.65;;
14001;SDS011;7076;51.280;12.584;2022-09-28T20:57:53;1.73;;;1.45;;
14001;SDS011;7076;51.280;12.584;2022-09-28T21:02:56;1.60;;;1.20;;
14001;SDS011;7076;51.280;12.584;2022-09-28T21:08:00;2.92;;;1.30;;
14001;SDS011;7076;51.280;12.584;2022-09-28T21:13:03;2.05;;;1.33;;
14001;SDS011;7076;51.280;12.584;2022-09-28T21:18:06;1.30;;;1.10;;
14001;SDS011;7076;51.280;12.584;2022-09-28T21:23:10;1.52;;;1.38;;
14001;SDS011;7076;51.280;12.584;2022-09-28T21:28:13;3.35;;;1.40;;
14001;SDS011;7076;51.280;12.584;2022-09-28T21:33:16;1.30;;;1.13;;
14001;SDS011;7076;51.280;12.584;2022-09-28T21:38:20;1.50;;;1.38;;
14001;SDS011;7076;51.280;12.584;2022-09-28T21:43:23;2.92;;;1.30;;
14001;SDS011;7076;51.280;12.584;2022-09-28T21:48:26;1.20;;;1.10;;
14001;SDS011;7076;51.280;12.584;2022-09-28T21:53:31;2.80;;;1.35;;
14001;SDS011;7076;51.280;12.584;2022-09-28T21:58:35;2.42;;;1.10;;
14001;SDS011;7076;51.280;12.584;2022-09-28T22:03:38;1.42;;;1.30;;
14001;SDS011;7076;51.280;12.584;2022-09-28T22:08:42;3.13;;;1.88;;
14001;SDS011;7076;51.280;12.584;2022-09-28T22:13:45;1.73;;;1.30;;
14001;SDS011;7076;51.280;12.584;2022-09-28T22:18:49;2.08;;;1.38;;
14001;SDS011;7076;51.280;12.584;2022-09-28T22:23:55;1.67;;;1.52;;
14001;SDS011;7076;51.280;12.584;2022-09-28T22:29:02;2.22;;;1.48;;
14001;SDS011;7076;51.280;12.584;2022-09-28T22:34:06;1.90;;;1.52;;
14001;SDS011;7076;51.280;12.584;2022-09-28T22:39:10;2.55;;;1.58;;
14001;SDS011;7076;51.280;12.584;2022-09-28T22:44:14;2.35;;;1.92;;
14001;SDS011;7076;51.280;12.584;2022-09-28T22:49:17;2.85;;;1.55;;
14001;SDS011;7076;51.280;12.584;2022-09-28T22:54:21;2.05;;;1.85;;
14001;SDS011;7076;51.280;12.584;2022-09-28T22:59:23;2.58;;;1.85;;
14001;SDS011;7076;51.280;12.584;2022-09-28T23:04:26;2.90;;;1.88;;
14001;SDS011;7076;51.280;12.584;2022-09-28T23:09:30;2.70;;;1.75;;
14001;SDS011;7076;51.280;12.584;2022-09-28T23:14:33;2.42;;;1.48;;
14001;SDS011;7076;51.280;12.584;2022-09-28T23:19:36;3.78;;;2.00;;
14001;SDS011;7076;51.280;12.584;2022-09-28T23:24:39;4.65;;;2.03;;
14001;SDS011;7076;51.280;12.584;2022-09-28T23:29:42;4.07;;;1.90;;
14001;SDS011;7076;51.280;12.584;2022-09-28T23:34:48;2.65;;;1.90;;
14001;SDS011;7076;51.280;12.584;2022-09-28T23:39:52;3.50;;;1.80;;
14001;SDS011;7076;51.280;12.584;2022-09-28T23:44:56;3.83;;;1.80;;
14001;SDS011;7076;51.280;12.584;2022-09-28T23:49:58;2.85;;;1.83;;
14001;SDS011;7076;51.280;12.584;2022-09-28T23:55:03;2.60;;;1.85;;
